This is the latest recevied weather packets stored in our database for station/object YO2MD-11. If no packets are shown the sender has not sent any weather packets the latest 10 day(s).
| Time | Temp. | Humidity | Pressure | Rain* | Wind** | Luminosity | Snow |
|---|---|---|---|---|---|---|---|
| 1777912419 | 23.89° C | 100% | 703 hPa | - | - | - | - |
| 1777910618 | 24.44° C | 100% | 703 hPa | - | - | - | - |
| 1777908817 | 24.44° C | 100% | 704 hPa | - | - | - | - |
| 1777907551 | 25° C | 100% | 704 hPa | - | - | - | - |
| 1777905214 | 25° C | 100% | 704 hPa | - | - | - | - |
| 1777903413 | 25° C | 100% | 704 hPa | - | - | - | - |
| 1777901612 | 25° C | 100% | 704 hPa | - | - | - | - |
| 1777899810 | 25.56° C | 100% | 705 hPa | - | - | - | - |
| 1777898009 | 26.11° C | 100% | 705 hPa | - | - | - | - |
| 1777896208 | 23.89° C | 100% | 703 hPa | - | - | - | - |
| 1777894407 | 26.11° C | 100% | 705 hPa | - | - | - | - |
| 1777892605 | 23.89° C | 100% | 703 hPa | - | - | - | - |
| 1777890804 | 24.44° C | 100% | 704 hPa | - | - | - | - |
| 1777889003 | 25° C | 100% | 704 hPa | - | - | - | - |
| 1777887202 | 22.78° C | 100% | 702 hPa | - | - | - | - |
| 1777885401 | 21.67° C | 100% | 700 hPa | - | - | - | - |
| 1777883600 | 25° C | 100% | 704 hPa | - | - | - | - |
| 1777881799 | 22.22° C | 100% | 701 hPa | - | - | - | - |
| 1777879998 | 20.56° C | 100% | 699 hPa | - | - | - | - |
| 1777878197 | 19.44° C | 100% | 698 hPa | - | - | - | - |
| 1777876396 | 15.56° C | 100% | 694 hPa | - | - | - | - |
| 1777874594 | 13.33° C | 100% | 692 hPa | - | - | - | - |
| 1777872793 | 11.67° C | 100% | 690 hPa | - | - | - | - |
| 1777870992 | 10.56° C | 100% | 689 hPa | - | - | - | - |
| 1777869191 | 12.22° C | 100% | 691 hPa | - | - | - | - |
* Rain since midnight (hover to see other rain measurements)
** Current wind speed in m/s (hover to see current wind gust speed)